createdAt,value
2023-01-05T00:01:54.569Z,5.70
2023-01-05T00:04:23.878Z,5.80
2023-01-05T00:06:53.102Z,5.80
2023-01-05T00:09:21.683Z,5.80
2023-01-05T00:12:08.275Z,5.80
2023-01-05T00:14:54.694Z,5.80
2023-01-05T00:17:43.637Z,5.80
2023-01-05T00:20:35.274Z,5.70
2023-01-05T00:23:03.866Z,5.70
2023-01-05T00:25:36.716Z,5.50
2023-01-05T00:28:05.836Z,5.50
2023-01-05T00:30:42.976Z,5.50
2023-01-05T00:33:18.282Z,5.50
2023-01-05T00:35:46.280Z,5.40
2023-01-05T00:38:14.174Z,5.40
2023-01-05T00:40:42.660Z,5.40
2023-01-05T00:43:11.177Z,5.40
2023-01-05T00:45:39.940Z,5.40
2023-01-05T00:48:08.327Z,5.50
2023-01-05T00:50:36.741Z,5.50
2023-01-05T00:53:04.785Z,5.60
2023-01-05T00:55:33.301Z,5.60
2023-01-05T00:58:01.773Z,5.60
2023-01-05T01:00:29.709Z,5.60
2023-01-05T01:02:59.133Z,5.70
2023-01-05T01:05:27.555Z,5.70
2023-01-05T01:07:57.930Z,5.70
2023-01-05T01:10:26.567Z,5.70
2023-01-05T01:12:54.944Z,5.50
2023-01-05T01:15:23.118Z,5.50
2023-01-05T01:17:51.659Z,5.50
2023-01-05T01:20:20.680Z,5.40
2023-01-05T01:22:49.123Z,5.40
2023-01-05T01:25:17.483Z,5.30
2023-01-05T01:27:45.349Z,5.30
2023-01-05T01:30:14.221Z,5.30
2023-01-05T01:32:42.422Z,5.30
2023-01-05T01:35:10.487Z,5.30
2023-01-05T01:37:38.661Z,5.20
2023-01-05T01:40:08.477Z,5.30
2023-01-05T01:42:36.428Z,5.30
2023-01-05T01:45:23.153Z,5.30
2023-01-05T01:48:01.713Z,5.30
2023-01-05T01:50:35.233Z,5.30
2023-01-05T01:53:06.254Z,5.30
2023-01-05T01:55:35.950Z,5.40
2023-01-05T01:58:08.313Z,5.30
2023-01-05T02:00:36.843Z,5.40
2023-01-05T02:03:06.088Z,5.40
2023-01-05T02:05:37.398Z,5.30
2023-01-05T02:08:15.201Z,5.30
2023-01-05T02:11:03.515Z,5.40
2023-01-05T02:13:37.634Z,5.70
2023-01-05T02:16:35.308Z,5.80
2023-01-05T02:19:19.032Z,5.80
2023-01-05T02:21:50.725Z,5.70
2023-01-05T02:24:43.906Z,5.60
2023-01-05T02:27:45.158Z,5.50
2023-01-05T02:30:51.835Z,5.40
2023-01-05T02:33:28.912Z,5.30
2023-01-05T02:36:12.442Z,5.20
2023-01-05T02:38:49.986Z,5.20
2023-01-05T02:41:34.977Z,5.10
2023-01-05T02:44:07.338Z,5.10
2023-01-05T02:46:35.798Z,5.00
2023-01-05T02:49:06.406Z,4.90
2023-01-05T02:51:42.385Z,4.90
2023-01-05T02:54:25.583Z,5.00
2023-01-05T02:57:18.755Z,5.00
2023-01-05T02:59:51.408Z,5.00
2023-01-05T03:02:27.922Z,4.90
2023-01-05T03:05:21.400Z,4.90
2023-01-05T03:07:51.647Z,4.90
2023-01-05T03:10:38.778Z,4.90
2023-01-05T03:13:49.167Z,4.80
2023-01-05T03:16:26.404Z,4.80
2023-01-05T03:19:18.598Z,4.80
2023-01-05T03:22:05.940Z,4.80
2023-01-05T03:24:57.663Z,4.70
2023-01-05T03:27:44.854Z,4.60
2023-01-05T03:30:33.920Z,4.50
2023-01-05T03:33:42.224Z,4.50
2023-01-05T03:36:13.683Z,4.50
2023-01-05T03:38:45.349Z,4.50
2023-01-05T03:41:16.597Z,4.50
2023-01-05T03:43:47.222Z,4.50
2023-01-05T03:46:19.452Z,4.50
2023-01-05T03:48:48.115Z,4.50
2023-01-05T03:51:18.631Z,4.50
2023-01-05T03:53:47.817Z,4.50
2023-01-05T03:56:16.183Z,4.30
2023-01-05T03:58:44.190Z,4.30
2023-01-05T04:01:12.553Z,4.30
2023-01-05T04:03:41.587Z,4.40
2023-01-05T04:06:09.923Z,4.40
2023-01-05T04:08:39.523Z,4.40
2023-01-05T04:11:19.197Z,4.40
2023-01-05T04:14:01.679Z,4.40
2023-01-05T04:16:30.091Z,4.40
2023-01-05T04:19:01.846Z,4.40
2023-01-05T04:21:30.051Z,4.50
2023-01-05T04:23:58.506Z,4.50
2023-01-05T04:26:26.686Z,4.50
2023-01-05T04:28:54.795Z,4.50
2023-01-05T04:31:26.090Z,4.50
2023-01-05T04:33:57.441Z,4.50
2023-01-05T04:36:27.429Z,4.60
2023-01-05T04:38:57.679Z,4.60
2023-01-05T04:41:25.807Z,4.40
2023-01-05T04:43:55.261Z,4.30
2023-01-05T04:46:25.197Z,4.20
2023-01-05T04:48:56.083Z,4.20
2023-01-05T04:51:25.171Z,4.10
2023-01-05T04:53:54.093Z,4.20
2023-01-05T04:56:24.933Z,4.30
2023-01-05T04:58:53.026Z,4.30
2023-01-05T05:01:21.137Z,4.20
2023-01-05T05:03:53.629Z,4.20
2023-01-05T05:06:23.842Z,4.10
2023-01-05T05:08:53.436Z,4.10
2023-01-05T05:11:21.918Z,4.20
2023-01-05T05:13:50.866Z,4.30
2023-01-05T05:16:19.065Z,4.50
2023-01-05T05:18:48.537Z,4.40
2023-01-05T05:21:23.780Z,4.20
2023-01-05T05:23:52.287Z,4.10
2023-01-05T05:26:20.967Z,3.80
2023-01-05T05:28:50.324Z,3.70
2023-01-05T05:31:18.231Z,3.70
2023-01-05T05:33:46.361Z,3.70
2023-01-05T05:36:14.986Z,3.90
2023-01-05T05:38:42.948Z,3.80
2023-01-05T05:41:11.259Z,4.00
2023-01-05T05:43:39.348Z,3.90
2023-01-05T05:46:07.531Z,3.80
2023-01-05T05:48:35.692Z,3.70
2023-01-05T05:51:03.817Z,3.80
2023-01-05T05:53:31.923Z,3.90
2023-01-05T05:56:00.001Z,4.10
2023-01-05T05:58:27.939Z,4.20
2023-01-05T06:00:59.805Z,4.10
2023-01-05T06:03:27.837Z,4.00
2023-01-05T06:05:55.909Z,3.90
2023-01-05T06:08:24.523Z,3.80
2023-01-05T06:10:52.406Z,3.50
2023-01-05T06:13:20.381Z,3.30
2023-01-05T06:15:48.625Z,3.30
2023-01-05T06:18:17.815Z,3.40
2023-01-05T06:20:46.594Z,3.20
2023-01-05T06:23:14.538Z,3.10
2023-01-05T06:25:43.492Z,3.30
2023-01-05T06:28:13.673Z,3.10
2023-01-05T06:30:45.024Z,3.00
2023-01-05T06:33:12.939Z,3.10
2023-01-05T06:35:41.030Z,3.20
2023-01-05T06:38:11.173Z,3.40
2023-01-05T06:40:44.730Z,3.40
2023-01-05T06:43:12.678Z,3.40
2023-01-05T06:45:40.695Z,3.40
2023-01-05T06:48:08.795Z,3.50
2023-01-05T06:50:36.876Z,3.50
2023-01-05T06:53:04.962Z,3.60
2023-01-05T06:55:32.967Z,3.50
2023-01-05T06:58:01.572Z,3.40
2023-01-05T07:00:32.364Z,3.50
2023-01-05T07:03:03.562Z,3.60
2023-01-05T07:05:32.023Z,3.90
2023-01-05T07:08:00.001Z,4.20
2023-01-05T07:10:31.035Z,4.40
2023-01-05T07:13:01.943Z,4.60
2023-01-05T07:15:30.027Z,4.80
2023-01-05T07:17:59.012Z,5.00
2023-01-05T07:20:27.055Z,5.20
2023-01-05T07:22:57.954Z,5.40
2023-01-05T07:25:31.817Z,5.50
2023-01-05T07:27:59.847Z,5.70
2023-01-05T07:30:27.966Z,5.50
2023-01-05T07:32:59.926Z,5.70
2023-01-05T07:35:28.944Z,5.90
2023-01-05T07:37:59.483Z,5.90
2023-01-05T07:40:28.628Z,6.00
2023-01-05T07:42:59.660Z,6.10
2023-01-05T07:45:27.965Z,6.40
2023-01-05T07:47:55.916Z,6.50
2023-01-05T07:50:24.171Z,6.50
2023-01-05T07:52:52.420Z,6.50
2023-01-05T07:55:20.729Z,6.60
2023-01-05T07:57:49.163Z,6.60
2023-01-05T08:00:17.634Z,7.10
2023-01-05T08:02:46.416Z,7.00
2023-01-05T08:05:14.477Z,7.10
2023-01-05T08:07:45.815Z,7.10
2023-01-05T08:10:29.720Z,7.60
2023-01-05T08:13:26.088Z,7.90
2023-01-05T08:15:56.660Z,7.90
2023-01-05T08:18:28.137Z,8.80
2023-01-05T08:20:58.691Z,8.40
2023-01-05T08:23:28.565Z,8.40
2023-01-05T08:25:57.247Z,8.40
2023-01-05T08:28:31.284Z,9.10
2023-01-05T08:31:04.954Z,9.60
2023-01-05T08:33:33.487Z,9.70
2023-01-05T08:36:01.501Z,10.10
2023-01-05T08:38:29.715Z,10.70
2023-01-05T08:41:00.869Z,11.10
2023-01-05T08:43:28.874Z,10.40
2023-01-05T08:45:57.094Z,10.00
2023-01-05T08:48:25.188Z,10.00
2023-01-05T08:50:53.159Z,10.50
2023-01-05T08:53:21.020Z,10.80
2023-01-05T08:55:48.944Z,10.60
2023-01-05T08:58:16.881Z,10.20
2023-01-05T09:00:44.964Z,9.90
2023-01-05T09:03:13.078Z,9.70
2023-01-05T09:05:40.981Z,9.70
2023-01-05T09:08:09.094Z,9.70
2023-01-05T09:10:37.166Z,10.10
2023-01-05T09:13:05.076Z,10.10
2023-01-05T09:15:33.094Z,10.10
2023-01-05T09:18:01.186Z,10.40
2023-01-05T09:20:31.061Z,11.00
2023-01-05T09:23:02.668Z,11.40
2023-01-05T09:25:30.743Z,11.60
2023-01-05T09:27:58.619Z,11.70
2023-01-05T09:30:26.573Z,12.00
2023-01-05T09:32:54.885Z,12.00
2023-01-05T09:35:23.016Z,12.30
2023-01-05T09:37:51.280Z,12.10
2023-01-05T09:40:19.871Z,12.50
2023-01-05T09:42:49.125Z,11.60
2023-01-05T09:45:26.631Z,11.00
2023-01-05T09:47:58.004Z,11.10
2023-01-05T09:50:30.895Z,11.60
2023-01-05T09:53:00.783Z,12.00
2023-01-05T09:55:31.847Z,11.80
2023-01-05T09:58:07.234Z,11.90
2023-01-05T10:00:38.910Z,12.30
2023-01-05T10:03:44.885Z,12.60
2023-01-05T10:06:04.264Z,12.20
2023-01-05T10:08:38.176Z,12.20
2023-01-05T10:11:39.351Z,12.20
2023-01-05T10:14:15.217Z,12.50
2023-01-05T10:16:45.123Z,13.30
2023-01-05T10:19:18.245Z,13.60
2023-01-05T10:21:57.836Z,13.70
2023-01-05T10:24:54.483Z,14.40
2023-01-05T10:27:25.454Z,14.80
2023-01-05T10:30:05.963Z,14.70
2023-01-05T10:36:07.368Z,13.60
2023-01-05T10:38:46.405Z,13.00
2023-01-05T10:41:34.807Z,12.60
2023-01-05T10:44:53.123Z,12.50
2023-01-05T10:47:23.409Z,12.50
2023-01-05T10:49:51.810Z,12.60
2023-01-05T10:52:22.394Z,12.60
2023-01-05T10:55:02.457Z,12.80
2023-01-05T10:57:35.936Z,12.90
2023-01-05T11:00:12.242Z,12.90
2023-01-05T11:03:03.911Z,12.80
2023-01-05T11:05:37.934Z,13.10
2023-01-05T11:08:29.718Z,13.10
2023-01-05T11:10:59.199Z,13.10
2023-01-05T11:13:48.864Z,13.00
2023-01-05T11:16:22.503Z,13.00
2023-01-05T11:19:02.253Z,12.90
2023-01-05T11:21:35.947Z,12.80
2023-01-05T11:24:05.408Z,12.90
2023-01-05T11:26:38.153Z,13.00
2023-01-05T11:29:09.372Z,13.00
2023-01-05T11:31:44.892Z,13.20
2023-01-05T11:34:33.854Z,13.00
2023-01-05T11:37:07.795Z,13.00
2023-01-05T11:39:41.279Z,13.10
2023-01-05T11:42:12.499Z,13.20
2023-01-05T11:44:44.396Z,13.20
2023-01-05T11:47:25.434Z,13.30
2023-01-05T11:50:31.261Z,13.10
2023-01-05T11:53:01.439Z,13.10
2023-01-05T11:55:38.047Z,13.20
2023-01-05T11:58:18.062Z,13.20
2023-01-05T12:01:06.045Z,13.30
2023-01-05T12:04:01.744Z,13.30
2023-01-05T12:06:30.108Z,13.30
2023-01-05T12:09:11.455Z,13.40
2023-01-05T12:11:54.824Z,13.50
2023-01-05T12:14:34.855Z,13.50
2023-01-05T12:17:14.659Z,13.60
2023-01-05T12:19:48.438Z,13.60
2023-01-05T12:22:35.058Z,13.70
2023-01-05T12:25:17.506Z,13.70
2023-01-05T12:28:09.877Z,13.60
2023-01-05T12:34:13.268Z,13.50
2023-01-05T12:37:20.425Z,13.50
2023-01-05T12:40:09.599Z,13.50
2023-01-05T12:42:37.916Z,13.60
2023-01-05T12:45:38.796Z,13.60
2023-01-05T12:48:11.008Z,13.70
2023-01-05T12:50:44.639Z,13.70
2023-01-05T12:53:12.802Z,13.80
2023-01-05T12:55:55.350Z,13.70
2023-01-05T12:58:47.836Z,13.70
2023-01-05T13:01:26.007Z,13.80
2023-01-05T13:04:02.457Z,13.80
2023-01-05T13:06:38.310Z,13.90
2023-01-05T13:09:28.088Z,13.90
2023-01-05T13:12:08.118Z,13.90
2023-01-05T13:14:41.533Z,14.00
2023-01-05T13:17:21.306Z,14.00
2023-01-05T13:19:55.551Z,14.00
2023-01-05T13:22:34.691Z,14.10
2023-01-05T13:25:14.941Z,14.10
2023-01-05T13:27:43.462Z,14.20
2023-01-05T13:30:27.354Z,14.20
2023-01-05T13:33:06.112Z,14.20
2023-01-05T13:35:42.992Z,14.30
2023-01-05T13:38:33.255Z,14.30
2023-01-05T13:41:20.173Z,14.30
2023-01-05T13:44:23.128Z,14.30
2023-01-05T13:47:28.126Z,14.40
2023-01-05T13:50:33.695Z,14.40
2023-01-05T13:53:27.467Z,14.40
2023-01-05T13:56:06.731Z,14.40
2023-01-05T13:58:50.794Z,14.40
2023-01-05T14:01:36.414Z,14.40
2023-01-05T14:04:06.942Z,14.30
2023-01-05T14:06:37.961Z,14.30
2023-01-05T14:09:27.449Z,14.30
2023-01-05T14:12:15.066Z,14.30
2023-01-05T14:15:04.564Z,14.30
2023-01-05T14:17:54.619Z,14.30
2023-01-05T14:20:34.185Z,14.30
2023-01-05T14:23:22.062Z,14.30
2023-01-05T14:26:00.555Z,14.30
2023-01-05T14:28:29.335Z,14.20
2023-01-05T14:31:18.933Z,14.20
2023-01-05T14:33:53.526Z,14.20
2023-01-05T14:36:39.506Z,14.20
2023-01-05T14:39:19.705Z,14.20
2023-01-05T14:41:57.776Z,14.10
2023-01-05T14:44:49.952Z,14.20
2023-01-05T14:47:35.045Z,14.10
2023-01-05T14:50:06.142Z,14.10
2023-01-05T14:52:57.387Z,14.00
2023-01-05T14:55:39.531Z,14.00
2023-01-05T14:58:33.827Z,13.90
2023-01-05T15:01:21.330Z,13.90
2023-01-05T15:04:47.901Z,13.80
2023-01-05T15:07:42.795Z,13.70
2023-01-05T15:10:29.328Z,13.60
2023-01-05T15:13:24.339Z,13.50
2023-01-05T15:16:18.124Z,13.40
2023-01-05T15:18:57.074Z,13.30
2023-01-05T15:21:37.507Z,13.20
2023-01-05T15:24:09.019Z,13.10
2023-01-05T15:27:02.369Z,13.10
2023-01-05T15:29:39.447Z,13.00
2023-01-05T15:32:13.482Z,12.90
2023-01-05T15:34:45.335Z,12.80
2023-01-05T15:37:13.786Z,12.70
2023-01-05T15:39:55.575Z,12.70
2023-01-05T15:42:44.593Z,12.70
2023-01-05T15:45:32.893Z,12.60
2023-01-05T15:48:11.361Z,12.50
2023-01-05T15:50:48.982Z,12.40
2023-01-05T15:53:33.391Z,12.30
2023-01-05T15:56:02.336Z,12.20
2023-01-05T15:58:33.339Z,12.20
2023-01-05T16:01:12.508Z,12.10
2023-01-05T16:03:43.719Z,12.10
2023-01-05T16:06:28.436Z,12.00
2023-01-05T16:09:02.998Z,12.00
2023-01-05T16:11:36.032Z,11.90
2023-01-05T16:14:07.218Z,11.80
2023-01-05T16:17:00.895Z,11.70
2023-01-05T16:19:40.014Z,11.70
2023-01-05T16:22:17.767Z,11.60
2023-01-05T16:25:00.054Z,11.50
2023-01-05T16:27:29.321Z,11.40
2023-01-05T16:30:32.382Z,11.30
2023-01-05T16:33:13.458Z,11.20
2023-01-05T16:35:50.257Z,11.20
2023-01-05T16:38:26.883Z,11.20
2023-01-05T16:41:05.157Z,11.10
2023-01-05T16:43:56.036Z,11.10
2023-01-05T16:46:31.390Z,11.00
2023-01-05T16:49:27.267Z,10.90
2023-01-05T16:51:57.117Z,10.90
2023-01-05T16:54:44.290Z,10.80
2023-01-05T16:57:40.136Z,10.70
2023-01-05T17:00:27.040Z,10.70
2023-01-05T17:02:57.439Z,10.60
2023-01-05T17:05:32.171Z,10.50
2023-01-05T17:08:07.802Z,10.40
2023-01-05T17:10:36.103Z,10.30
2023-01-05T17:13:08.385Z,10.20
2023-01-05T17:15:36.998Z,10.00
2023-01-05T17:18:27.374Z,9.90
2023-01-05T17:20:57.820Z,9.80
2023-01-05T17:23:31.866Z,9.70
2023-01-05T17:26:04.903Z,9.60
2023-01-05T17:28:32.878Z,9.50
2023-01-05T17:31:01.480Z,9.40
2023-01-05T17:33:29.624Z,9.40
2023-01-05T17:35:58.333Z,9.30
2023-01-05T17:38:26.706Z,9.20
2023-01-05T17:40:55.173Z,9.20
2023-01-05T17:43:23.116Z,9.10
2023-01-05T17:45:52.171Z,9.00
2023-01-05T17:48:20.611Z,8.90
2023-01-05T17:50:50.998Z,8.70
2023-01-05T17:53:21.115Z,8.60
2023-01-05T17:55:49.574Z,8.60
2023-01-05T17:58:17.684Z,8.50
2023-01-05T18:03:22.312Z,8.20
2023-01-05T18:05:52.984Z,8.20
2023-01-05T18:08:22.012Z,8.10
2023-01-05T18:10:50.047Z,8.10
2023-01-05T18:13:21.301Z,8.10
2023-01-05T18:15:53.294Z,8.00
2023-01-05T18:18:22.368Z,7.90
2023-01-05T18:20:53.609Z,7.90
2023-01-05T18:23:24.522Z,8.10
2023-01-05T18:25:52.502Z,8.20
2023-01-05T18:28:20.933Z,8.20
2023-01-05T18:30:48.894Z,8.10
2023-01-05T18:33:18.128Z,8.10
2023-01-05T18:35:46.426Z,8.00
2023-01-05T18:38:15.250Z,7.90
2023-01-05T18:40:47.875Z,7.80
2023-01-05T18:43:16.329Z,7.60
2023-01-05T18:45:44.335Z,7.70
2023-01-05T18:48:12.669Z,7.70
2023-01-05T18:50:50.230Z,7.60
2023-01-05T18:53:20.846Z,7.50
2023-01-05T18:55:49.543Z,7.30
2023-01-05T18:58:17.789Z,7.30
2023-01-05T19:00:46.673Z,7.40
2023-01-05T19:03:14.961Z,7.40
2023-01-05T19:05:44.799Z,7.50
2023-01-05T19:08:14.028Z,7.40
2023-01-05T19:10:42.219Z,7.50
2023-01-05T19:13:10.991Z,7.50
2023-01-05T19:15:39.159Z,7.50
2023-01-05T19:18:07.998Z,7.70
2023-01-05T19:20:36.457Z,7.30
2023-01-05T19:23:04.480Z,7.30
2023-01-05T19:25:32.632Z,7.30
2023-01-05T19:28:02.292Z,7.20
2023-01-05T19:30:32.005Z,7.20
2023-01-05T19:33:02.512Z,7.10
2023-01-05T19:35:31.337Z,7.10
2023-01-05T19:38:00.924Z,7.10
2023-01-05T19:40:29.373Z,7.10
2023-01-05T19:42:57.398Z,7.00
2023-01-05T19:45:25.472Z,7.00
2023-01-05T19:47:53.516Z,7.10
2023-01-05T19:50:22.503Z,7.00
2023-01-05T19:52:50.807Z,7.00
2023-01-05T19:55:19.254Z,6.90
2023-01-05T19:57:47.421Z,6.80
2023-01-05T20:00:16.396Z,6.60
2023-01-05T20:02:45.100Z,6.50
2023-01-05T20:05:14.296Z,6.40
2023-01-05T20:07:43.621Z,6.30
2023-01-05T20:10:12.221Z,6.20
2023-01-05T20:12:41.096Z,6.20
2023-01-05T20:15:12.081Z,6.10
2023-01-05T20:17:42.322Z,6.10
2023-01-05T20:20:12.263Z,6.10
2023-01-05T20:22:40.936Z,6.10
2023-01-05T20:25:10.311Z,6.10
2023-01-05T20:27:38.985Z,6.10
2023-01-05T20:30:07.609Z,6.10
2023-01-05T20:32:36.430Z,6.10
2023-01-05T20:35:05.111Z,6.00
2023-01-05T20:37:33.322Z,6.00
2023-01-05T20:40:02.559Z,6.00
2023-01-05T20:42:31.077Z,6.00
2023-01-05T20:45:00.590Z,6.00
2023-01-05T20:47:31.769Z,5.90
2023-01-05T20:50:07.544Z,5.90
2023-01-05T20:52:37.003Z,5.90
2023-01-05T20:55:05.269Z,5.90
2023-01-05T20:57:33.374Z,5.90
2023-01-05T21:00:01.332Z,5.90
2023-01-05T21:02:29.394Z,5.90
2023-01-05T21:04:57.947Z,5.90
2023-01-05T21:07:26.418Z,6.00
2023-01-05T21:09:55.300Z,6.00
2023-01-05T21:12:23.739Z,6.10
2023-01-05T21:14:51.919Z,6.00
2023-01-05T21:17:20.292Z,6.00
2023-01-05T21:19:48.363Z,6.00
2023-01-05T21:22:16.331Z,5.90
2023-01-05T21:24:45.503Z,5.90
2023-01-05T21:27:13.506Z,5.90
2023-01-05T21:29:42.606Z,5.80
2023-01-05T21:32:11.593Z,5.90
2023-01-05T21:34:40.191Z,6.00
2023-01-05T21:37:08.489Z,6.00
2023-01-05T21:39:36.892Z,5.90
2023-01-05T21:42:23.388Z,5.80
2023-01-05T21:44:52.963Z,5.70
2023-01-05T21:47:21.487Z,5.70
2023-01-05T21:49:50.205Z,5.80
2023-01-05T21:52:37.396Z,5.70
2023-01-05T21:55:24.401Z,5.60
2023-01-05T21:57:52.875Z,5.50
2023-01-05T22:00:21.377Z,5.40
2023-01-05T22:02:49.461Z,5.40
2023-01-05T22:05:17.874Z,5.30
2023-01-05T22:07:46.172Z,5.30
2023-01-05T22:10:14.446Z,5.30
2023-01-05T22:12:42.490Z,5.30
2023-01-05T22:15:12.185Z,5.40
2023-01-05T22:17:40.567Z,5.50
2023-01-05T22:20:09.660Z,5.50
2023-01-05T22:22:37.738Z,5.50
2023-01-05T22:25:06.529Z,5.50
2023-01-05T22:27:34.921Z,5.60
2023-01-05T22:30:03.330Z,5.60
2023-01-05T22:32:31.355Z,5.60
2023-01-05T22:34:59.777Z,5.60
2023-01-05T22:37:27.895Z,5.70
2023-01-05T22:39:56.677Z,5.70
2023-01-05T22:42:25.076Z,5.70
2023-01-05T22:44:53.512Z,5.80
2023-01-05T22:47:21.519Z,5.90
2023-01-05T22:49:49.949Z,5.90
2023-01-05T22:52:17.958Z,5.90
2023-01-05T22:54:45.970Z,6.00
2023-01-05T22:57:14.515Z,6.00
2023-01-05T22:59:42.553Z,6.10
2023-01-05T23:02:10.959Z,6.10
2023-01-05T23:04:39.433Z,6.10
2023-01-05T23:07:07.844Z,6.10
2023-01-05T23:09:36.566Z,6.10
2023-01-05T23:12:05.637Z,6.20
2023-01-05T23:14:34.025Z,6.30
2023-01-05T23:17:02.019Z,6.20
2023-01-05T23:19:30.276Z,6.20
2023-01-05T23:21:58.341Z,6.10
2023-01-05T23:24:26.949Z,6.10
2023-01-05T23:26:55.689Z,6.00
2023-01-05T23:29:23.651Z,6.00
2023-01-05T23:31:51.946Z,6.00
2023-01-05T23:34:20.081Z,5.90
2023-01-05T23:36:48.144Z,5.90
2023-01-05T23:39:17.166Z,5.90
2023-01-05T23:41:45.652Z,5.80
2023-01-05T23:44:14.849Z,5.90
2023-01-05T23:46:43.285Z,5.90
2023-01-05T23:49:11.607Z,5.90
2023-01-05T23:51:40.143Z,5.90
2023-01-05T23:54:08.492Z,5.90
2023-01-05T23:56:37.453Z,5.90
2023-01-05T23:59:08.451Z,5.90
